DTTR

El Borma Airport

El Borma, Tunisia
METAR DTTR 161500Z 24015KT 9999 FEW020 16/10 Q1015
Observed Flight Rules
Dec-16 @ 15:00 UTC (9 hours ago) Visual Flight Rules
Wind Visibility Clouds
240° at 15 knots 10,000+ meters
  • Few at 2,000' AGL
Temperatures Readings
Current 16°C / 61°F
Dewpoint 10°C / 50°F
Humidity 68%
Altimeter 29.97" Hg
Pressure 1015 hPa
Elevation 259
METAR DTTR 161500Z 24015KT 9999 FEW020 16/10 Q1015
Observed Flight Rules
Dec-16 @ 15:00 UTC
(9 hours ago)
VFR
Wind Visibility
240° at 15 knots 10,000+ meters
Clouds
  • Few at 2,000' AGL
Temperature Dewpoint
16°C / 61°F 10°C / 50°F
Humidity Altimeter Pressure
68% 29.97" Hg 1015 hPa